Time;durP1;ratioP1;P1;durP2;ratioP2;P2;SDS_P1;SDS_P2;PMS_P1;PMS_P2;Temp;Humidity;BMP_temperature;BMP_pressure;BME280_temperature;BME280_humidity;BME280_pressure;Samples;Min_cycle;Max_cycle;Signal;HPM_P1;HPM_P2
2023/03/15 00:00:11;;;;;;;;;11.50;9.00;;;;;-145.09;100.00;59365.97;5133353;27;32539;-79
2023/03/15 00:02:36;;;;;;;;;11.50;7.00;;;;;-145.09;100.00;59365.97;5134032;27;8796;-80
2023/03/15 00:05:02;;;;;;;;;8.75;8.00;;;;;-145.09;100.00;59365.97;5133778;27;8886;-80
2023/03/15 00:07:28;;;;;;;;;9.25;8.25;;;;;-145.09;100.00;59365.97;5134124;27;8800;-80
2023/03/15 00:09:53;;;;;;;;;8.00;7.00;;;;;-145.09;100.00;59365.97;5133476;27;27649;-80
2023/03/15 00:12:18;;;;;;;;;8.75;8.00;;;;;-145.09;100.00;59365.97;5132661;27;8816;-80
2023/03/15 00:14:44;;;;;;;;;10.75;8.00;;;;;-145.09;100.00;59365.97;5126573;27;21248;-79
2023/03/15 00:17:10;;;;;;;;;7.50;6.00;;;;;-145.09;100.00;59365.97;5112716;27;26114;-79
2023/03/15 00:19:36;;;;;;;;;5.50;5.00;;;;;-145.09;100.00;59365.97;5112933;27;8795;-79
2023/03/15 00:22:01;;;;;;;;;7.75;6.50;;;;;-145.09;100.00;59365.97;5113186;27;8846;-79
2023/03/15 00:24:26;;;;;;;;;6.75;6.75;;;;;-145.09;100.00;59365.97;5110824;28;30848;-80
2023/03/15 00:26:52;;;;;;;;;9.25;7.00;;;;;-145.09;100.00;59365.97;5112048;27;27680;-79
2023/03/15 00:29:17;;;;;;;;;5.50;5.50;;;;;-145.09;100.00;59365.97;5108324;28;8887;-79
2023/03/15 00:31:43;;;;;;;;;9.50;8.00;;;;;-145.09;100.00;59365.97;5106681;28;30575;-79
2023/03/15 00:34:08;;;;;;;;;10.50;4.50;;;;;-145.09;100.00;59365.97;5112521;27;8846;-80
2023/03/15 00:36:33;;;;;;;;;7.25;4.75;;;;;-145.09;100.00;59365.97;5112516;28;21042;-80
2023/03/15 00:38:59;;;;;;;;;7.00;7.00;;;;;-145.09;100.00;59365.97;5112182;28;28271;-79
2023/03/15 00:41:24;;;;;;;;;7.00;4.50;;;;;-145.09;100.00;59365.97;5111081;28;24020;-79
2023/03/15 00:43:50;;;;;;;;;10.75;6.50;;;;;-145.09;100.00;59365.97;5112893;28;8806;-80
2023/03/15 00:46:17;;;;;;;;;6.00;6.00;;;;;-145.09;100.00;59365.97;5112816;27;8811;-79
2023/03/15 00:48:42;;;;;;;;;6.75;4.00;;;;;-145.09;100.00;59365.97;5112521;27;8783;-79
2023/03/15 00:51:11;;;;;;;;;6.50;4.00;;;;;-145.09;100.00;59365.97;5111154;28;20831;-79
2023/03/15 00:53:37;;;;;;;;;8.50;4.00;;;;;-145.09;100.00;59365.97;5121093;27;8788;-79
2023/03/15 00:56:23;;;;;;;;;5.00;5.00;;;;;-145.09;100.00;59365.97;5132030;27;8812;-80
2023/03/15 00:58:51;;;;;;;;;10.25;7.00;;;;;-145.09;100.00;59365.97;5150611;27;8773;-79
2023/03/15 01:01:27;;;;;;;;;6.00;4.25;;;;;-145.09;100.00;59365.97;5134622;27;9659;-80
2023/03/15 01:03:53;;;;;;;;;4.00;4.00;;;;;-145.09;100.00;59365.97;5153671;27;8766;-79
2023/03/15 01:06:24;;;;;;;;;6.50;4.75;;;;;-145.09;100.00;59365.97;5153932;27;8813;-80
2023/03/15 01:08:50;;;;;;;;;1.50;1.50;;;;;-145.09;100.00;59365.97;5152800;27;8774;-80
2023/03/15 01:11:23;;;;;;;;;8.00;4.00;;;;;-145.09;100.00;59365.97;5134969;27;8828;-80
2023/03/15 01:13:49;;;;;;;;;10.25;3.50;;;;;-145.09;100.00;59365.97;5135341;27;8758;-79
2023/03/15 01:16:15;;;;;;;;;9.00;5.50;;;;;-145.09;100.00;59365.97;5135831;27;8947;-80
2023/03/15 01:18:41;;;;;;;;;8.00;4.00;;;;;-145.09;100.00;59365.97;5132755;27;8899;-79
2023/03/15 01:21:08;;;;;;;;;5.00;4.50;;;;;-145.09;100.00;59365.97;5132926;27;9570;-80
2023/03/15 01:23:34;;;;;;;;;7.00;4.50;;;;;-145.09;100.00;59365.97;5131500;27;9685;-80
2023/03/15 01:26:03;;;;;;;;;5.00;5.00;;;;;-145.09;100.00;59365.97;5132241;27;26066;-79
2023/03/15 01:28:29;;;;;;;;;7.25;4.25;;;;;-145.09;100.00;59365.97;5132782;27;8793;-79
2023/03/15 01:30:55;;;;;;;;;10.00;7.50;;;;;-145.09;100.00;59365.97;5132748;27;8824;-79
2023/03/15 01:33:20;;;;;;;;;6.50;5.00;;;;;-145.09;100.00;59365.97;5132399;27;8793;-80
2023/03/15 01:35:46;;;;;;;;;9.50;7.50;;;;;-145.09;100.00;59365.97;5132767;27;8828;-79
2023/03/15 01:38:12;;;;;;;;;8.25;5.00;;;;;-145.09;100.00;59365.97;5132627;27;8805;-79
2023/03/15 01:40:41;;;;;;;;;5.50;5.00;;;;;-145.09;100.00;59365.97;5131890;27;30793;-80
2023/03/15 01:43:07;;;;;;;;;8.75;4.50;;;;;-145.09;100.00;59365.97;5132575;27;8788;-79
2023/03/15 01:46:14;;;;;;;;;5.00;4.00;;;;;-145.09;100.00;59365.97;5132582;27;8792;-79
2023/03/15 01:48:56;;;;;;;;;9.50;5.00;;;;;-145.09;100.00;59365.97;5053198;28;11517;-79
2023/03/15 01:51:25;;;;;;;;;5.00;4.00;;;;;-145.09;100.00;59365.97;5037149;28;9599;-79
2023/03/15 01:53:58;;;;;;;;;7.25;4.25;;;;;-145.09;100.00;59365.97;5060645;28;8807;-79
2023/03/15 01:56:25;;;;;;;;;5.75;2.00;;;;;-145.09;100.00;59365.97;5071228;28;8822;-79
2023/03/15 01:58:51;;;;;;;;;4.00;2.00;;;;;-145.09;100.00;59365.97;5052454;28;23536;-79
2023/03/15 02:01:17;;;;;;;;;4.25;4.00;;;;;-145.09;100.00;59365.97;5068216;28;15975;-79
2023/03/15 02:03:45;;;;;;;;;4.00;4.00;;;;;-145.09;100.00;59365.97;5068148;28;27044;-79
2023/03/15 02:06:16;;;;;;;;;10.00;2.00;;;;;-145.09;100.00;59365.97;5068921;28;8813;-79
2023/03/15 02:08:46;;;;;;;;;7.25;5.50;;;;;-145.09;100.00;59365.97;5068930;28;8789;-79
2023/03/15 02:11:12;;;;;;;;;10.00;7.50;;;;;-145.09;100.00;59365.97;5069268;28;8891;-79
2023/03/15 02:13:37;;;;;;;;;6.00;6.00;;;;;-145.09;100.00;59365.97;5072428;28;8778;-79
2023/03/15 02:16:05;;;;;;;;;6.50;4.00;;;;;-145.09;100.00;59365.97;5070989;28;28634;-79
2023/03/15 02:18:34;;;;;;;;;5.00;5.00;;;;;-145.09;100.00;59365.97;5072294;28;8844;-79
2023/03/15 02:21:05;;;;;;;;;6.75;4.25;;;;;-145.09;100.00;59365.97;5072321;28;8805;-79
2023/03/15 02:23:31;;;;;;;;;2.00;2.00;;;;;-145.09;100.00;59365.97;5149146;27;8785;-79
2023/03/15 02:26:17;;;;;;;;;10.25;4.25;;;;;-145.09;100.00;59365.97;5137000;27;23652;-80
2023/03/15 02:28:43;;;;;;;;;6.50;5.00;;;;;-145.09;100.00;59365.97;5137902;27;8863;-78
2023/03/15 02:31:09;;;;;;;;;4.50;4.25;;;;;-145.09;100.00;59365.97;5136807;27;30687;-79
2023/03/15 02:33:46;;;;;;;;;7.00;3.00;;;;;-145.09;100.00;59365.97;5156360;27;8772;-79
2023/03/15 02:36:20;;;;;;;;;9.00;7.00;;;;;-145.09;100.00;59365.97;5137741;27;8815;-79
2023/03/15 02:38:47;;;;;;;;;7.75;4.75;;;;;-145.09;100.00;59365.97;5137834;27;8784;-79
2023/03/15 02:41:15;;;;;;;;;9.00;4.75;;;;;-145.09;100.00;59365.97;5156144;27;8865;-79
2023/03/15 02:43:41;;;;;;;;;4.50;4.00;;;;;-145.09;100.00;59365.97;5137774;27;8791;-79
2023/03/15 02:46:07;;;;;;;;;11.50;6.00;;;;;-145.09;100.00;59365.97;5155635;27;14380;-79
2023/03/15 02:48:33;;;;;;;;;5.00;4.75;;;;;-145.09;100.00;59365.97;5137463;27;8804;-79
2023/03/15 02:51:00;;;;;;;;;7.00;4.25;;;;;-145.09;100.00;59365.97;5137642;27;8900;-79
2023/03/15 02:53:28;;;;;;;;;8.50;5.00;;;;;-145.09;100.00;59365.97;5133452;27;8856;-79
2023/03/15 02:55:53;;;;;;;;;7.75;5.00;;;;;-145.09;100.00;59365.97;5116946;27;8790;-79
2023/03/15 02:58:19;;;;;;;;;7.75;4.25;;;;;-145.09;100.00;59365.97;5116582;27;8837;-79
2023/03/15 03:00:44;;;;;;;;;11.75;3.50;;;;;-145.09;100.00;59365.97;5134028;27;32104;-79
2023/03/15 03:03:10;;;;;;;;;4.25;4.25;;;;;-145.09;100.00;59365.97;5134288;27;28419;-79
2023/03/15 03:05:35;;;;;;;;;4.00;4.00;;;;;-145.09;100.00;59365.97;5116856;27;8806;-79
2023/03/15 03:08:01;;;;;;;;;4.00;2.00;;;;;-145.09;100.00;59365.97;5134376;27;27547;-79
2023/03/15 03:10:27;;;;;;;;;5.00;3.75;;;;;-145.09;100.00;59365.97;5134988;27;8798;-79
2023/03/15 03:12:53;;;;;;;;;6.00;4.00;;;;;-145.09;100.00;59365.97;5134961;27;8797;-79
2023/03/15 03:15:19;;;;;;;;;7.75;3.00;;;;;-145.09;100.00;59365.97;5143819;27;20590;-80
2023/03/15 03:17:45;;;;;;;;;8.00;4.00;;;;;-145.09;100.00;59365.97;5155639;27;8788;-79
2023/03/15 03:20:12;;;;;;;;;4.25;4.00;;;;;-145.09;100.00;59365.97;5155565;27;8834;-79
2023/03/15 03:22:39;;;;;;;;;5.50;2.00;;;;;-145.09;100.00;59365.97;5154893;27;8769;-79
2023/03/15 03:25:06;;;;;;;;;4.25;2.00;;;;;-145.09;100.00;59365.97;5155361;27;8784;-79
2023/03/15 03:27:35;;;;;;;;;2.50;2.50;;;;;-145.09;100.00;59365.97;5155509;27;8788;-79
2023/03/15 03:30:02;;;;;;;;;4.00;2.00;;;;;-145.09;100.00;59365.97;5136903;27;8803;-78
2023/03/15 03:32:28;;;;;;;;;11.75;5.00;;;;;-145.09;100.00;59365.97;5155472;27;8808;-79
2023/03/15 03:34:54;;;;;;;;;2.00;1.00;;;;;-145.09;100.00;59365.97;5155114;27;12860;-79
2023/03/15 03:37:20;;;;;;;;;4.00;4.00;;;;;-145.09;100.00;59365.97;5155217;27;8819;-79
2023/03/15 03:39:46;;;;;;;;;7.00;4.00;;;;;-145.09;100.00;59365.97;5155467;27;8796;-80
2023/03/15 03:42:11;;;;;;;;;5.00;3.00;;;;;-145.09;100.00;59365.97;5154321;27;31097;-79
2023/03/15 03:44:36;;;;;;;;;10.00;4.00;;;;;-145.09;100.00;59365.97;5136223;27;8803;-79
2023/03/15 03:47:02;;;;;;;;;4.00;3.00;;;;;-145.09;100.00;59365.97;5136156;27;20897;-79
2023/03/15 03:49:28;;;;;;;;;5.00;4.00;;;;;-145.09;100.00;59365.97;5155088;27;8800;-80
2023/03/15 03:51:53;;;;;;;;;5.50;4.00;;;;;-145.09;100.00;59365.97;5154385;27;29203;-79
2023/03/15 03:54:21;;;;;;;;;6.50;4.50;;;;;-145.09;100.00;59365.97;5132188;27;32699;-79
2023/03/15 03:56:47;;;;;;;;;9.00;5.50;;;;;-145.09;100.00;59365.97;5134198;27;8867;-79
2023/03/15 03:59:13;;;;;;;;;6.50;4.00;;;;;-145.09;100.00;59365.97;5133621;27;15444;-79
2023/03/15 04:01:38;;;;;;;;;4.25;3.50;;;;;-145.09;100.00;59365.97;5115825;27;8791;-79
2023/03/15 04:04:04;;;;;;;;;7.00;4.25;;;;;-145.09;100.00;59365.97;5134201;27;8821;-79
2023/03/15 04:06:30;;;;;;;;;7.75;3.00;;;;;-145.09;100.00;59365.97;5133538;27;24755;-79
2023/03/15 04:08:55;;;;;;;;;6.25;4.00;;;;;-145.09;100.00;59365.97;5115597;27;8787;-81
2023/03/15 04:11:21;;;;;;;;;5.00;2.00;;;;;-145.09;100.00;59365.97;5134083;27;8905;-81
2023/03/15 04:13:46;;;;;;;;;6.00;4.00;;;;;-145.09;100.00;59365.97;5133768;27;8802;-81
2023/03/15 04:16:13;;;;;;;;;5.00;2.00;;;;;-145.09;100.00;59365.97;5133655;27;8809;-79
2023/03/15 04:18:39;;;;;;;;;2.00;2.00;;;;;-145.09;100.00;59365.97;5133821;27;8861;-79
2023/03/15 04:21:09;;;;;;;;;4.75;4.50;;;;;-145.09;100.00;59365.97;5134010;27;8911;-79
2023/03/15 04:23:35;;;;;;;;;5.00;4.00;;;;;-145.09;100.00;59365.97;5133899;27;8792;-79
2023/03/15 04:26:00;;;;;;;;;7.75;2.25;;;;;-145.09;100.00;59365.97;5132169;27;8817;-79
2023/03/15 04:28:26;;;;;;;;;5.00;3.25;;;;;-145.09;100.00;59365.97;5132612;27;8885;-79
2023/03/15 04:30:57;;;;;;;;;7.00;2.00;;;;;-145.09;100.00;59365.97;5132896;27;31202;-79
2023/03/15 04:33:23;;;;;;;;;7.75;4.00;;;;;-145.09;100.00;59365.97;5133512;27;8788;-79
2023/03/15 04:35:48;;;;;;;;;4.00;2.25;;;;;-145.09;100.00;59365.97;5133623;27;8820;-80
2023/03/15 04:38:14;;;;;;;;;2.00;2.00;;;;;-145.09;100.00;59365.97;5132229;27;15127;-79
2023/03/15 04:40:41;;;;;;;;;2.25;2.25;;;;;-145.09;100.00;59365.97;5133154;27;8906;-79
2023/03/15 04:43:07;;;;;;;;;6.50;2.25;;;;;-145.09;100.00;59365.97;5133513;27;9627;-80
2023/03/15 04:45:33;;;;;;;;;3.00;1.50;;;;;-145.09;100.00;59365.97;5133259;27;12822;-79
2023/03/15 04:48:00;;;;;;;;;6.25;4.25;;;;;-145.09;100.00;59365.97;5133494;27;8909;-79
2023/03/15 04:50:25;;;;;;;;;5.50;4.00;;;;;-145.09;100.00;59365.97;5132217;27;8800;-79
2023/03/15 04:52:51;;;;;;;;;4.00;2.25;;;;;-145.09;100.00;59365.97;5135400;27;8920;-79
2023/03/15 04:55:16;;;;;;;;;4.00;4.00;;;;;-145.09;100.00;59365.97;5153968;27;8792;-79
2023/03/15 04:57:42;;;;;;;;;2.00;1.75;;;;;-145.09;100.00;59365.97;5152973;27;8859;-79
2023/03/15 05:00:09;;;;;;;;;1.50;1.50;;;;;-145.09;100.00;59365.97;5153334;27;23071;-79
2023/03/15 05:02:38;;;;;;;;;6.00;2.25;;;;;-145.09;100.00;59365.97;5153982;27;8815;-79
2023/03/15 05:05:04;;;;;;;;;3.00;3.00;;;;;-145.09;100.00;59365.97;5153942;27;8784;-80
2023/03/15 05:07:30;;;;;;;;;4.50;1.25;;;;;-145.09;100.00;59365.97;5153924;27;8819;-80
2023/03/15 05:09:55;;;;;;;;;4.00;2.25;;;;;-145.09;100.00;59365.97;5152946;27;26036;-80
2023/03/15 05:12:20;;;;;;;;;6.00;2.50;;;;;-145.09;100.00;59365.97;5153006;27;25381;-80
2023/03/15 05:14:46;;;;;;;;;4.00;4.00;;;;;-145.09;100.00;59365.97;5153098;27;24503;-80
2023/03/15 05:17:11;;;;;;;;;4.50;2.25;;;;;-145.09;100.00;59365.97;5152896;27;30098;-80
2023/03/15 05:19:36;;;;;;;;;2.25;2.25;;;;;-145.09;100.00;59365.97;5153509;27;11479;-79
2023/03/15 05:22:02;;;;;;;;;4.25;2.25;;;;;-145.09;100.00;59365.97;5152897;27;24036;-79
2023/03/15 05:24:28;;;;;;;;;3.75;3.00;;;;;-145.09;100.00;59365.97;5151989;27;8796;-79
2023/03/15 05:26:54;;;;;;;;;3.00;2.25;;;;;-145.09;100.00;59365.97;5135053;27;8816;-80
2023/03/15 05:29:21;;;;;;;;;7.50;3.00;;;;;-145.09;100.00;59365.97;5135117;27;8788;-79
2023/03/15 05:31:46;;;;;;;;;5.50;2.75;;;;;-145.09;100.00;59365.97;5153825;27;8768;-80
2023/03/15 05:34:12;;;;;;;;;6.50;1.50;;;;;-145.09;100.00;59365.97;5153548;27;8799;-79
2023/03/15 05:36:37;;;;;;;;;3.00;3.00;;;;;-145.09;100.00;59365.97;5152722;27;27065;-79
2023/03/15 05:39:03;;;;;;;;;3.50;2.25;;;;;-145.09;100.00;59365.97;5152032;27;8776;-79
2023/03/15 05:41:29;;;;;;;;;6.00;3.50;;;;;-145.09;100.00;59365.97;5134966;27;8903;-79
2023/03/15 05:43:54;;;;;;;;;6.75;4.00;;;;;-145.09;100.00;59365.97;5153374;27;8803;-79
2023/03/15 05:46:21;;;;;;;;;2.50;2.25;;;;;-145.09;100.00;59365.97;5152158;27;22946;-79
2023/03/15 05:48:47;;;;;;;;;7.50;3.00;;;;;-145.09;100.00;59365.97;5153367;27;8776;-80
2023/03/15 05:51:12;;;;;;;;;3.25;2.50;;;;;-145.09;100.00;59365.97;5134864;27;8765;-79
2023/03/15 05:53:38;;;;;;;;;3.75;2.25;;;;;-145.09;100.00;59365.97;5152807;27;8794;-79
2023/03/15 05:56:03;;;;;;;;;2.75;1.00;;;;;-145.09;100.00;59365.97;5134736;27;8805;-79
2023/03/15 05:58:29;;;;;;;;;1.00;1.00;;;;;-145.09;100.00;59365.97;5153063;27;8809;-79
2023/03/15 06:00:54;;;;;;;;;2.25;2.25;;;;;-145.09;100.00;59365.97;5153139;27;8789;-79
2023/03/15 06:03:19;;;;;;;;;6.50;1.75;;;;;-145.09;100.00;59365.97;5153193;27;8781;-80
2023/03/15 06:05:45;;;;;;;;;3.00;2.25;;;;;-145.09;100.00;59365.97;5153214;27;8762;-79
2023/03/15 06:08:10;;;;;;;;;3.00;3.00;;;;;-145.09;100.00;59365.97;5152256;27;21653;-79
2023/03/15 06:10:36;;;;;;;;;3.25;1.75;;;;;-145.09;100.00;59365.97;5153430;27;8778;-79
2023/03/15 06:13:01;;;;;;;;;3.50;3.50;;;;;-145.09;100.00;59365.97;5153103;27;8801;-79
2023/03/15 06:15:27;;;;;;;;;1.75;1.00;;;;;-145.09;100.00;59365.97;5130868;27;8820;-79
2023/03/15 06:17:52;;;;;;;;;9.75;1.00;;;;;-145.09;100.00;59365.97;5130180;27;31438;-80
2023/03/15 06:20:17;;;;;;;;;4.25;1.75;;;;;-145.09;100.00;59365.97;5131540;27;27927;-80
2023/03/15 06:22:43;;;;;;;;;4.00;4.00;;;;;-145.09;100.00;59365.97;5131636;27;12004;-79
2023/03/15 06:25:09;;;;;;;;;6.00;2.25;;;;;-145.09;100.00;59365.97;5131556;27;26135;-79
2023/03/15 06:27:35;;;;;;;;;2.25;2.25;;;;;-145.09;100.00;59365.97;5132054;27;8858;-79
2023/03/15 06:30:00;;;;;;;;;4.00;3.00;;;;;-145.09;100.00;59365.97;5130948;27;8781;-80
2023/03/15 06:32:26;;;;;;;;;7.75;4.50;;;;;-145.09;100.00;59365.97;5132280;27;8827;-79
2023/03/15 06:34:51;;;;;;;;;6.00;4.00;;;;;-145.09;100.00;59365.97;5132063;27;8818;-79
2023/03/15 06:37:16;;;;;;;;;7.50;6.50;;;;;-145.09;100.00;59365.97;5131613;27;14758;-79
2023/03/15 06:39:43;;;;;;;;;4.00;4.00;;;;;-145.09;100.00;59365.97;5132109;27;8780;-80
2023/03/15 06:42:11;;;;;;;;;3.00;0.25;;;;;-145.09;100.00;59365.97;5130780;27;8884;-79
2023/03/15 06:44:37;;;;;;;;;6.75;5.75;;;;;-145.09;100.00;59365.97;5130774;27;8788;-79
2023/03/15 06:47:03;;;;;;;;;5.75;4.25;;;;;-145.09;100.00;59365.97;5130699;27;8789;-79
2023/03/15 06:49:29;;;;;;;;;13.50;7.00;;;;;-145.09;100.00;59365.97;5131828;27;9580;-79
2023/03/15 06:51:55;;;;;;;;;7.25;5.25;;;;;-145.09;100.00;59365.97;5130326;27;8780;-79
2023/03/15 06:54:20;;;;;;;;;6.75;4.00;;;;;-145.09;100.00;59365.97;5146698;27;8890;-80
2023/03/15 06:56:45;;;;;;;;;8.25;7.00;;;;;-145.09;100.00;59365.97;5133052;27;32384;-80
2023/03/15 06:59:11;;;;;;;;;5.50;3.50;;;;;-145.09;100.00;59365.97;5153991;27;19630;-79
2023/03/15 07:01:36;;;;;;;;;8.00;7.00;;;;;-145.09;100.00;59365.97;5155955;27;8782;-79
2023/03/15 07:04:02;;;;;;;;;8.00;6.00;;;;;-145.09;100.00;59365.97;5155902;27;8778;-80
2023/03/15 07:06:28;;;;;;;;;7.00;7.00;;;;;-145.09;100.00;59365.97;5137158;27;8908;-79
2023/03/15 07:08:53;;;;;;;;;7.75;7.75;;;;;-145.09;100.00;59365.97;5156013;27;8762;-79
2023/03/15 07:11:19;;;;;;;;;10.00;7.00;;;;;-145.09;100.00;59365.97;5155232;27;29245;-79
2023/03/15 07:13:44;;;;;;;;;15.00;7.50;;;;;-145.09;100.00;59365.97;5154447;27;8877;-79
2023/03/15 07:16:09;;;;;;;;;5.50;5.50;;;;;-145.09;100.00;59365.97;5154284;27;8975;-80
2023/03/15 07:18:35;;;;;;;;;4.75;4.75;;;;;-145.09;100.00;59365.97;5154955;27;30012;-79
2023/03/15 07:21:02;;;;;;;;;6.00;4.00;;;;;-145.09;100.00;59365.97;5155373;27;8872;-79
2023/03/15 07:23:27;;;;;;;;;8.25;6.25;;;;;-145.09;100.00;59365.97;5137104;27;8768;-79
2023/03/15 07:25:53;;;;;;;;;9.00;7.00;;;;;-145.09;100.00;59365.97;5155633;27;8796;-80
2023/03/15 07:28:19;;;;;;;;;10.00;5.00;;;;;-145.09;100.00;59365.97;5156096;27;8945;-88
2023/03/15 07:31:04;;;;;;;;;12.75;5.00;;;;;-145.09;100.00;59365.97;5138239;27;8788;-88
2023/03/15 07:33:31;;;;;;;;;7.75;5.00;;;;;-145.09;100.00;59365.97;5156627;27;8849;-84
2023/03/15 07:35:57;;;;;;;;;4.00;4.00;;;;;-145.09;100.00;59365.97;5144109;27;8737;-88
2023/03/15 07:38:29;;;;;;;;;4.25;4.00;;;;;-145.09;100.00;59365.97;5123142;27;8822;-87
2023/03/15 07:40:55;;;;;;;;;7.75;2.00;;;;;-145.09;100.00;59365.97;5118063;27;8812;-88
2023/03/15 07:43:21;;;;;;;;;6.75;5.00;;;;;-145.09;100.00;59365.97;5152459;27;8788;-89
2023/03/15 07:45:46;;;;;;;;;4.00;4.00;;;;;-145.09;100.00;59365.97;5128868;27;8803;-88
2023/03/15 07:48:12;;;;;;;;;4.25;4.25;;;;;-145.09;100.00;59365.97;5128269;27;8804;-89
2023/03/15 07:50:37;;;;;;;;;4.25;4.00;;;;;-145.09;100.00;59365.97;5120134;27;8819;-88
2023/03/15 07:54:04;;;;;;;;;2.50;2.50;;;;;-145.09;100.00;59365.97;5123291;27;8832;-94
2023/03/15 08:00:01;;;;;;;;;4.75;3.00;;;;;-145.09;100.00;59365.97;4973441;28;8939;-93
2023/03/15 08:02:27;;;;;;;;;7.00;2.00;;;;;-145.09;100.00;59365.97;4957245;28;8839;-89
2023/03/15 08:04:53;;;;;;;;;4.00;2.00;;;;;-145.09;100.00;59365.97;4972718;28;8801;-92
2023/03/15 08:07:32;;;;;;;;;5.00;5.00;;;;;-145.09;100.00;59365.97;4969444;28;8834;-91
2023/03/15 08:10:07;;;;;;;;;5.00;4.00;;;;;-145.09;100.00;59365.97;4949928;28;8825;-91
2023/03/15 08:51:29;;;;;;;;;2.00;2.00;;;;;;;;6346850;22;8786;-86
2023/03/15 08:53:55;;;;;;;;;4.00;4.00;;;;;;;;6389171;22;8761;-87
2023/03/15 08:56:20;;;;;;;;;2.50;2.00;;;;;;;;6390438;22;8837;-87
2023/03/15 08:58:45;;;;;;;;;1.00;1.00;;;;;;;;6387774;22;8762;-87
2023/03/15 09:01:11;;;;;;;;;1.50;1.00;;;;;;;;6389287;22;11395;-89
2023/03/15 09:03:36;;;;;;;;;4.50;2.00;;;;;;;;6387321;22;8774;-88
2023/03/15 09:06:02;;;;;;;;;1.00;1.00;;;;;;;;6389541;22;8730;-88
2023/03/15 09:08:27;;;;;;;;;1.00;1.00;;;;;;;;6389685;22;10052;-89
2023/03/15 09:10:54;;;;;;;;;7.33;1.67;;;;;;;;6388195;22;8829;-87
2023/03/15 09:13:19;;;;;;;;;4.00;4.00;;;;;;;;1063123;22;114157299;-85
2023/03/15 09:16:06;;;;;;;;;;;;;;;;;;2882114;22;101579494;-87
2023/03/15 09:18:32;;;;;;;;;5.00;3.00;;;;;;;;4640619;22;38949844;-86
2023/03/15 09:20:58;;;;;;;;;5.50;2.00;;;;;;;;6086663;22;4835587;-86
2023/03/15 09:23:23;;;;;;;;;2.00;1.00;;;;;;;;6310386;22;495872;-86
2023/03/15 09:25:48;;;;;;;;;3.00;1.00;;;;;;;;6360937;22;326278;-86
2023/03/15 09:28:13;;;;;;;;;1.00;1.00;;;;;;;;6389837;22;11365;-89
2023/03/15 09:30:39;;;;;;;;;0.00;0.00;;;;;;;;6387847;22;11356;-88
2023/03/15 09:33:05;;;;;;;;;0.00;0.00;;;;;;;;6388725;22;11393;-85
2023/03/15 09:35:30;;;;;;;;;1.50;1.00;;;;;;;;6388001;22;8750;-84
2023/03/15 09:37:55;;;;;;;;;2.25;1.00;;;;;;;;6388532;22;8777;-84
2023/03/15 09:40:23;;;;;;;;;2.33;1.00;;;;;;;;6381044;22;8746;-83
2023/03/15 09:43:03;;;;;;;;;1.00;1.00;;;;;;;;6381593;22;11368;-83
2023/03/15 09:45:42;;;;;;;;;0.50;0.50;;;;;;;;6380425;22;8719;-83
2023/03/15 09:48:13;;;;;;;;;5.50;2.25;;;;;;;;6380774;22;8823;-84
2023/03/15 09:50:45;;;;;;;;;1.75;1.00;;;;;;;;6379056;22;8726;-84
2023/03/15 09:53:23;;;;;;;;;0.75;0.75;;;;;;;;6380395;22;8763;-85
2023/03/15 09:55:56;;;;;;;;;0.25;0.25;;;;;;;;6379261;22;8742;-84
2023/03/15 09:58:31;;;;;;;;;0.25;0.25;;;;;;;;6380817;22;8743;-83
2023/03/15 10:00:58;;;;;;;;;2.00;1.25;;;;;;;;6379844;22;8742;-83
2023/03/15 10:03:42;;;;;;;;;1.25;1.25;;;;;;;;6380331;22;8727;-83
2023/03/15 10:06:12;;;;;;;;;1.00;0.75;;;;;;;;6380794;22;8729;-84
2023/03/15 10:08:37;;;;;;;;;0.00;0.00;;;;;;;;6379039;22;8762;-83
2023/03/15 10:11:14;;;;;;;;;2.00;1.67;;;;;;;;6380288;22;8757;-84
2023/03/15 10:13:41;;;;;;;;;1.00;1.00;;;;;;;;6380825;22;10398;-83
2023/03/15 10:16:09;;;;;;;;;2.25;1.00;;;;;;;;6380250;22;8730;-83
2023/03/15 10:18:37;;;;;;;;;2.00;2.00;;;;;;;;6363920;22;45273;-84
2023/03/15 10:21:04;;;;;;;;;2.75;1.25;;;;;;;;6335595;22;45481;-84
2023/03/15 10:23:44;;;;;;;;;1.00;1.00;;;;;;;;6333859;22;48462;-84
2023/03/15 10:26:13;;;;;;;;;2.75;1.00;;;;;;;;6335931;22;45325;-84
2023/03/15 10:28:38;;;;;;;;;1.50;0.00;;;;;;;;6335297;22;45309;-83
2023/03/15 10:31:10;;;;;;;;;2.75;1.00;;;;;;;;6335184;22;45298;-83
2023/03/15 10:33:36;;;;;;;;;1.50;1.00;;;;;;;;6333633;22;47216;-83
2023/03/15 10:36:09;;;;;;;;;5.00;1.00;;;;;;;;6335483;22;45595;-83
2023/03/15 10:38:34;;;;;;;;;4.00;1.50;;;;;;;;6335528;22;45339;-80
2023/03/15 10:40:59;;;;;;;;;1.25;0.75;;;;;;;;6335246;22;45686;-82
2023/03/15 10:43:28;;;;;;;;;3.00;1.50;;;;;;;;6334620;22;46839;-83
2023/03/15 10:46:04;;;;;;;;;2.25;0.75;;;;;;;;6335470;22;45209;-83
2023/03/15 10:48:31;;;;;;;;;0.00;0.00;;;;;;;;6335941;22;45274;-83
2023/03/15 10:50:59;;;;;;;;;2.00;1.50;;;;;;;;6334628;22;45657;-83
2023/03/15 10:53:25;;;;;;;;;1.50;1.00;;;;;;;;6335017;22;45546;-82
2023/03/15 10:56:01;;;;;;;;;2.00;0.75;;;;;;;;6336144;22;45300;-84
2023/03/15 10:58:29;;;;;;;;;3.00;1.00;;;;;;;;6336208;22;45362;-83
2023/03/15 11:01:02;;;;;;;;;0.75;0.75;;;;;;;;6334477;22;45159;-83
2023/03/15 11:03:28;;;;;;;;;1.75;0.00;;;;;;;;6333298;22;48438;-83
2023/03/15 11:05:55;;;;;;;;;4.50;1.00;;;;;;;;6335614;22;45382;-85
2023/03/15 11:08:22;;;;;;;;;3.50;1.00;;;;;;;;6333564;22;45373;-84
2023/03/15 11:10:58;;;;;;;;;0.00;0.00;;;;;;;;6335531;22;45337;-83
2023/03/15 11:13:24;;;;;;;;;2.25;1.00;;;;;;;;6334613;22;46030;-83
2023/03/15 11:16:02;;;;;;;;;0.75;0.75;;;;;;;;6335457;22;45487;-83
2023/03/15 11:18:52;;;;;;;;;2.50;1.00;;;;;;;;6335420;22;45284;-82
2023/03/15 11:21:18;;;;;;;;;4.25;2.00;;;;;;;;6335738;22;45256;-82
2023/03/15 11:23:45;;;;;;;;;1.75;1.75;;;;;;;;6335209;22;45356;-83
2023/03/15 11:26:24;;;;;;;;;0.00;0.00;;;;;;;;6335114;22;45631;-83
2023/03/15 11:28:51;;;;;;;;;0.50;0.00;;;;;;;;6334794;22;45338;-84
2023/03/15 11:31:18;;;;;;;;;1.00;0.00;;;;;;;;6335519;22;45325;-84
2023/03/15 11:33:49;;;;;;;;;1.00;0.50;;;;;;;;6335260;22;46261;-84
2023/03/15 11:36:17;;;;;;;;;2.25;0.75;;;;;;;;6335593;22;45629;-84
2023/03/15 11:38:43;;;;;;;;;0.50;0.50;;;;;;;;6333749;22;45331;-84
2023/03/15 11:41:13;;;;;;;;;4.00;0.00;;;;;;;;6335518;22;45338;-84
2023/03/15 11:44:10;;;;;;;;;2.00;0.25;;;;;;;;6335412;22;46305;-84
2023/03/15 11:46:40;;;;;;;;;0.50;0.50;;;;;;;;6208799;22;45460;-84
2023/03/15 11:49:20;;;;;;;;;1.25;0.25;;;;;;;;6197001;22;333750;-84
2023/03/15 11:51:45;;;;;;;;;2.00;1.00;;;;;;;;6183879;22;45524;-86
2023/03/15 11:54:13;;;;;;;;;1.00;1.00;;;;;;;;6209007;22;45445;-86
2023/03/15 11:56:53;;;;;;;;;0.00;0.00;;;;;;;;6184307;22;45958;-89
2023/03/15 11:59:29;;;;;;;;;0.00;0.00;;;;;;;;6212204;22;45344;-90
2023/03/15 12:02:09;;;;;;;;;0.00;0.00;;;;;;;;6209846;22;45490;-85
2023/03/15 12:04:34;;;;;;;;;0.50;0.50;;;;;;;;6208521;22;47379;-86
2023/03/15 12:07:23;;;;;;;;;0.00;0.00;;;;;;;;6211412;22;45382;-92
2023/03/15 12:10:13;;;;;;;;;0.00;0.00;;;;;;;;6120973;23;45545;-95
2023/03/15 12:12:43;;;;;;;;;0.00;0.00;;;;;;;;6120112;23;45336;-87
2023/03/15 12:15:23;;;;;;;;;0.00;0.00;;;;;;;;6094786;23;48202;-87
2023/03/15 12:17:48;;;;;;;;;1.50;0.00;;;;;;;;6119515;23;45938;-87
2023/03/15 12:20:16;;;;;;;;;0.00;0.00;;;;;;;;6119916;23;45440;-87
2023/03/15 12:22:45;;;;;;;;;0.00;0.00;;;;;;;;6182910;22;45229;-87
2023/03/15 12:25:13;;;;;;;;;1.75;0.00;;;;;;;;6209104;22;45439;-89
2023/03/15 12:27:44;;;;;;;;;0.00;0.00;;;;;;;;6210738;22;45608;-91
2023/03/15 12:30:38;;;;;;;;;1.00;0.00;;;;;;;;6211207;22;45219;-93
2023/03/15 12:33:15;;;;;;;;;0.00;0.00;;;;;;;;6185784;22;45237;-91
2023/03/15 12:35:53;;;;;;;;;0.00;0.00;;;;;;;;6210817;22;45573;-91
2023/03/15 12:38:46;;;;;;;;;;;;;;;;;;;;;
2023/03/15 12:41:30;;;;;;;;;1.75;1.00;;;;;;;;6208399;22;68207;-87
2023/03/15 12:44:14;;;;;;;;;0.00;0.00;;;;;;;;6184941;22;45502;-89
2023/03/15 12:46:40;;;;;;;;;1.25;1.00;;;;;;;;6244453;22;47439;-90
2023/03/15 12:49:10;;;;;;;;;1.75;0.00;;;;;;;;6334960;22;45878;-87
2023/03/15 12:51:53;;;;;;;;;0.00;0.00;;;;;;;;6334063;22;45464;-87
2023/03/15 12:54:19;;;;;;;;;0.25;0.00;;;;;;;;6333274;22;45262;-87
2023/03/15 12:56:56;;;;;;;;;3.50;0.25;;;;;;;;6335377;22;46087;-87
2023/03/15 12:59:53;;;;;;;;;2.00;0.00;;;;;;;;6334371;22;45296;-93
2023/03/15 13:02:28;;;;;;;;;0.00;0.00;;;;;;;;6304199;22;45333;-89